TimeCDT,TemperatureF,Dew PointF,Humidity,Sea Level PressureIn,VisibilityMPH,Wind Direction,Wind SpeedMPH,Gust SpeedMPH,PrecipitationIn,Events,Conditions,WindDirDegrees,DateUTC
12:09 AM,30.2,28.4,93,30.46,1.5,NE,17.3,-,0.00,Snow,Light Snow,50,2013-05-03 05:09:00
12:45 AM,30.2,28.4,93,30.45,2.0,NE,16.1,-,0.00,Snow,Light Snow,40,2013-05-03 05:45:00
12:53 AM,30.9,28.0,89,30.48,1.5,NE,13.8,-,0.01,Snow,Light Snow,40,2013-05-03 05:53:00
1:18 AM,30.2,28.4,93,30.44,2.0,NE,15.0,-,0.00,Snow,Light Snow,40,2013-05-03 06:18:00
1:26 AM,30.2,28.4,93,30.44,1.5,NE,13.8,-,0.00,Snow,Light Snow,40,2013-05-03 06:26:00
1:51 AM,30.2,28.4,93,30.42,2.5,NE,18.4,24.2,0.00,Snow,Light Snow,40,2013-05-03 06:51:00
1:53 AM,30.0,28.0,92,30.45,2.5,NE,18.4,24.2,0.00,Snow,Light Snow,50,2013-05-03 06:53:00
2:09 AM,30.2,28.4,93,30.41,3.0,NE,17.3,23.0,0.00,Snow,Light Snow,40,2013-05-03 07:09:00
3:14 AM,30.2,26.6,86,30.40,4.0,NE,16.1,25.3,0.00,Snow,Light Snow,40,2013-05-03 08:14:00
3:21 AM,30.2,26.6,86,30.40,5.0,NE,16.1,25.3,0.00,Snow,Light Snow,50,2013-05-03 08:21:00
3:49 AM,30.2,26.6,86,30.39,2.5,NE,16.1,24.2,0.00,Snow,Light Snow,40,2013-05-03 08:49:00
3:53 AM,30.0,27.0,88,30.43,1.8,NNE,17.3,24.2,0.00,Snow,Light Snow,30,2013-05-03 08:53:00
4:25 AM,30.2,26.6,86,30.39,1.8,NNE,12.7,-,0.01,Snow,Light Snow,30,2013-05-03 09:25:00
4:29 AM,30.2,26.6,86,30.39,2.0,NNE,11.5,-,0.01,Snow,Light Snow,30,2013-05-03 09:29:00
4:32 AM,30.2,26.6,86,30.39,1.8,NNE,13.8,-,0.01,Snow,Light Snow,30,2013-05-03 09:32:00
4:48 AM,30.2,26.6,86,30.38,2.5,NNE,16.1,-,0.01,Snow,Light Snow,30,2013-05-03 09:48:00
4:53 AM,30.0,27.0,88,30.41,3.0,NNE,16.1,-,0.01,Snow,Light Snow,30,2013-05-03 09:53:00
5:16 AM,30.2,26.6,86,30.38,7.0,NNE,12.7,-,0.00,,Overcast,30,2013-05-03 10:16:00
5:53 AM,30.0,27.0,88,30.43,4.0,NE,12.7,-,0.00,Snow,Light Snow,40,2013-05-03 10:53:00
5:59 AM,30.2,26.6,86,30.39,2.5,NE,11.5,-,0.00,Snow,Light Snow,40,2013-05-03 10:59:00
6:06 AM,30.2,26.6,86,30.38,0.8,NNE,12.7,-,0.01,Snow,Light Snow,30,2013-05-03 11:06:00
6:18 AM,30.2,26.6,86,30.37,0.5,NE,13.8,21.9,0.01,Fog-Snow,Light Snow,40,2013-05-03 11:18:00
6:53 AM,28.9,27.0,92,30.40,0.8,NE,16.1,-,0.01,Snow,Light Snow,40,2013-05-03 11:53:00
7:33 AM,30.2,26.6,86,30.36,1.0,NNE,15.0,-,0.01,Snow,Light Snow,20,2013-05-03 12:33:00
7:53 AM,30.0,27.0,88,30.40,0.8,NNE,12.7,-,0.01,Snow,Light Snow,30,2013-05-03 12:53:00
8:10 AM,30.2,26.6,86,30.36,1.0,NNE,17.3,-,0.01,Snow,Light Snow,30,2013-05-03 13:10:00
8:44 AM,30.2,26.6,86,30.34,2.0,NE,18.4,24.2,0.03,Snow,Light Snow,40,2013-05-03 13:44:00
8:53 AM,30.0,27.0,88,30.38,2.5,NE,16.1,25.3,0.03,Snow,Light Snow,40,2013-05-03 13:53:00
9:01 AM,30.2,26.6,86,30.34,3.0,NNE,16.1,23.0,0.00,Snow,Light Snow,30,2013-05-03 14:01:00
9:51 AM,30.2,26.6,86,30.34,4.0,NE,16.1,-,0.02,Rain,Light Freezing Rain,50,2013-05-03 14:51:00
9:53 AM,30.0,27.0,88,30.38,4.0,NE,15.0,-,0.02,Rain,Light Freezing Rain,50,2013-05-03 14:53:00
10:03 AM,30.2,26.6,86,30.34,2.5,NE,11.5,21.9,0.00,Snow,Light Snow,40,2013-05-03 15:03:00
10:22 AM,30.2,26.6,86,30.33,3.0,NE,18.4,24.2,0.01,Snow,Light Snow,50,2013-05-03 15:22:00
10:31 AM,30.2,26.6,86,30.33,3.0,NE,18.4,25.3,0.02,Snow,Light Snow,40,2013-05-03 15:31:00
10:44 AM,30.2,26.6,86,30.33,3.0,NE,18.4,24.2,0.03,Snow,Light Snow,40,2013-05-03 15:44:00
10:51 AM,30.2,26.6,86,30.33,2.0,NE,15.0,23.0,0.04,Snow,Light Snow,40,2013-05-03 15:51:00
10:53 AM,30.0,27.0,88,30.37,2.0,NE,15.0,-,0.04,Snow,Light Snow,50,2013-05-03 15:53:00
11:12 AM,30.2,26.6,86,30.33,1.8,NE,17.3,24.2,0.01,Snow,Light Snow,40,2013-05-03 16:12:00
11:48 AM,30.2,26.6,86,30.33,3.0,NE,17.3,-,0.02,,Overcast,40,2013-05-03 16:48:00
11:53 AM,30.0,27.0,88,30.37,4.0,NE,17.3,25.3,0.03,,Overcast,40,2013-05-03 16:53:00
12:33 PM,30.2,26.6,86,30.30,5.0,NNE,18.4,27.6,0.01,Snow,Light Snow,30,2013-05-03 17:33:00
12:42 PM,30.2,28.4,93,30.29,3.0,NNE,20.7,26.5,0.01,Snow,Light Snow,30,2013-05-03 17:42:00
12:53 PM,30.9,28.0,89,30.33,4.0,NNE,17.3,-,0.01,,Overcast,30,2013-05-03 17:53:00
1:20 PM,30.2,26.6,86,30.30,1.8,NE,17.3,-,0.01,Snow,Light Snow,40,2013-05-03 18:20:00
1:44 PM,30.2,28.4,93,30.30,0.5,NNE,15.0,21.9,0.02,Fog-Snow,Light Snow,30,2013-05-03 18:44:00
1:53 PM,30.0,28.0,92,30.34,0.8,NE,13.8,-,0.02,Snow,Light Snow,40,2013-05-03 18:53:00
2:32 PM,30.2,28.4,93,30.29,2.0,NNE,18.4,25.3,0.01,Snow,Light Snow,30,2013-05-03 19:32:00
2:42 PM,30.2,26.6,86,30.29,5.0,NE,15.0,25.3,0.01,Snow,Light Snow,40,2013-05-03 19:42:00
2:53 PM,30.9,27.0,85,30.32,9.0,NE,18.4,25.3,0.01,,Overcast,40,2013-05-03 19:53:00
3:35 PM,30.2,26.6,86,30.28,2.5,NE,18.4,27.6,0.00,Snow,Light Snow,40,2013-05-03 20:35:00
3:44 PM,30.2,26.6,86,30.28,3.0,NE,19.6,-,0.00,Snow,Light Snow,50,2013-05-03 20:44:00
3:53 PM,30.9,27.0,85,30.32,10.0,NE,18.4,-,0.00,,Overcast,40,2013-05-03 20:53:00
4:12 PM,30.2,26.6,86,30.28,1.8,NE,13.8,-,0.00,Snow,Light Snow,50,2013-05-03 21:12:00
4:25 PM,30.2,28.4,93,30.28,3.0,NE,15.0,-,0.01,Snow,Light Snow,40,2013-05-03 21:25:00
4:33 PM,30.2,28.4,93,30.27,1.8,NE,17.3,26.5,0.01,Snow,Light Snow,40,2013-05-03 21:33:00
4:36 PM,30.2,28.4,93,30.27,0.8,NE,18.4,26.5,0.01,Snow,Light Snow,40,2013-05-03 21:36:00
4:47 PM,30.2,28.4,93,30.27,2.5,NE,12.7,-,0.02,Snow,Light Snow,40,2013-05-03 21:47:00
4:53 PM,30.9,28.0,89,30.31,1.0,NE,15.0,23.0,0.02,Snow,Light Snow,40,2013-05-03 21:53:00
5:00 PM,30.2,28.4,93,30.27,0.5,NNE,16.1,20.7,0.00,Fog-Snow,Snow,30,2013-05-03 22:00:00
5:18 PM,30.2,28.4,93,30.27,1.0,NE,13.8,-,0.01,Snow,Light Snow,40,2013-05-03 22:18:00
5:26 PM,30.2,28.4,93,30.27,0.8,NE,15.0,-,0.02,Snow,Light Snow,50,2013-05-03 22:26:00
5:53 PM,30.9,28.0,89,30.31,0.5,NE,12.7,-,0.04,Fog-Snow,Light Snow,40,2013-05-03 22:53:00
6:10 PM,30.2,28.4,93,30.27,1.5,NE,13.8,-,0.01,Snow,Light Snow,40,2013-05-03 23:10:00
6:29 PM,30.2,28.4,93,30.27,2.0,NE,15.0,-,0.01,Snow,Light Snow,50,2013-05-03 23:29:00
6:53 PM,30.9,28.0,89,30.30,4.0,NE,18.4,-,0.01,Snow,Light Snow,40,2013-05-03 23:53:00
7:53 PM,30.9,28.0,89,30.30,5.0,NE,17.3,-,0.01,Rain,Light Freezing Rain,50,2013-05-04 00:53:00
8:53 PM,30.9,28.9,92,30.29,5.0,NE,17.3,-,0.01,Snow,Light Snow,40,2013-05-04 01:53:00
9:46 PM,30.2,28.4,93,30.26,1.8,NE,18.4,24.2,0.01,Snow,Light Snow,40,2013-05-04 02:46:00
9:53 PM,30.9,28.9,92,30.30,1.2,NE,16.1,24.2,0.02,Snow,Light Snow,40,2013-05-04 02:53:00
10:16 PM,30.2,28.4,93,30.25,3.0,NE,16.1,23.0,0.01,Snow,Light Snow,40,2013-05-04 03:16:00
10:42 PM,30.2,28.4,93,30.25,2.5,NE,13.8,-,0.02,Snow,Light Snow,40,2013-05-04 03:42:00
10:53 PM,30.9,28.9,92,30.29,3.0,NE,16.1,20.7,0.02,Snow,Light Snow,40,2013-05-04 03:53:00
11:06 PM,30.2,28.4,93,30.25,2.5,NE,13.8,-,0.00,Snow,Light Snow,40,2013-05-04 04:06:00
11:42 PM,30.2,28.4,93,30.25,3.0,NE,12.7,-,0.00,Snow,Light Snow,50,2013-05-04 04:42:00
11:53 PM,30.9,28.9,92,30.28,3.0,NE,12.7,-,0.00,Snow,Light Snow,50,2013-05-04 04:53:00